createdAt,value
2019-03-25T00:00:15.596Z,7.79
2019-03-25T00:00:41.753Z,7.77
2019-03-25T00:01:08.074Z,7.82
2019-03-25T00:01:34.296Z,7.94
2019-03-25T00:02:00.409Z,7.95
2019-03-25T00:02:26.635Z,7.79
2019-03-25T00:02:52.812Z,7.75
2019-03-25T00:03:18.948Z,7.67
2019-03-25T00:03:45.092Z,7.69
2019-03-25T00:04:11.228Z,7.67
2019-03-25T00:04:37.436Z,7.77
2019-03-25T00:05:03.578Z,7.95
2019-03-25T00:05:29.788Z,7.8
2019-03-25T00:05:55.916Z,7.94
2019-03-25T00:06:22.089Z,7.91
2019-03-25T00:06:48.218Z,7.95
2019-03-25T00:07:14.336Z,7.97
2019-03-25T00:07:40.449Z,7.98
2019-03-25T00:08:06.562Z,7.94
2019-03-25T00:08:32.688Z,7.97
2019-03-25T00:09:05.088Z,7.93
2019-03-25T00:09:27.127Z,7.9
2019-03-25T00:09:53.303Z,7.93
2019-03-25T00:10:19.475Z,7.97
2019-03-25T00:10:45.612Z,7.91
2019-03-25T00:11:11.850Z,8.01
2019-03-25T00:11:37.915Z,8.01
2019-03-25T00:12:04.078Z,8.01
2019-03-25T00:12:30.235Z,7.95
2019-03-25T00:12:56.358Z,8.05
2019-03-25T00:13:22.521Z,7.93
2019-03-25T00:13:48.580Z,7.95
2019-03-25T00:14:14.701Z,7.72
2019-03-25T00:14:40.809Z,7.7
2019-03-25T00:15:07.000Z,7.79
2019-03-25T00:15:33.141Z,7.82
2019-03-25T00:16:00.273Z,7.82
2019-03-25T00:16:26.404Z,7.93
2019-03-25T00:16:52.629Z,7.95
2019-03-25T00:17:18.703Z,7.98
2019-03-25T00:17:44.835Z,7.98
2019-03-25T00:18:10.988Z,8.01
2019-03-25T00:18:37.153Z,7.82
2019-03-25T00:19:03.327Z,7.76
2019-03-25T00:19:29.480Z,7.69
2019-03-25T00:19:55.591Z,7.8
2019-03-25T00:20:21.692Z,7.85
2019-03-25T00:20:47.799Z,7.87
2019-03-25T00:21:13.903Z,8
2019-03-25T00:21:40.014Z,7.95
2019-03-25T00:22:06.123Z,8.01
2019-03-25T00:22:32.234Z,7.95
2019-03-25T00:22:58.344Z,8.08
2019-03-25T00:23:24.450Z,7.97
2019-03-25T00:23:50.554Z,8.13
2019-03-25T00:24:16.668Z,8.12
2019-03-25T00:24:43.808Z,8.1
2019-03-25T00:25:09.914Z,8.18
2019-03-25T00:25:36.055Z,8.13
2019-03-25T00:26:02.215Z,8.16
2019-03-25T00:26:28.315Z,8.13
2019-03-25T00:26:54.422Z,8.18
2019-03-25T00:27:20.536Z,8.15
2019-03-25T00:27:46.669Z,8.19
2019-03-25T00:28:13.842Z,8.13
2019-03-25T00:28:39.867Z,8.18
2019-03-25T00:29:05.981Z,8.23
2019-03-25T00:29:32.084Z,8.23
2019-03-25T00:29:58.188Z,8.15
2019-03-25T00:30:24.336Z,8.15
2019-03-25T00:30:50.433Z,7.95
2019-03-25T00:31:16.546Z,7.94
2019-03-25T00:31:42.655Z,7.97
2019-03-25T00:32:08.763Z,8
2019-03-25T00:32:34.907Z,8
2019-03-25T00:33:01.034Z,7.94
2019-03-25T00:33:27.138Z,7.98
2019-03-25T00:33:53.252Z,7.8
2019-03-25T00:34:19.354Z,7.82
2019-03-25T00:34:45.461Z,7.8
2019-03-25T00:35:11.569Z,7.87
2019-03-25T00:35:37.677Z,7.82
2019-03-25T00:36:03.814Z,7.82
2019-03-25T00:36:29.918Z,7.83
2019-03-25T00:36:56.026Z,7.91
2019-03-25T00:37:22.131Z,7.98
2019-03-25T00:37:48.245Z,7.61
2019-03-25T00:38:14.351Z,7.75
2019-03-25T00:38:40.507Z,7.72
2019-03-25T00:39:06.620Z,7.7
2019-03-25T00:39:32.748Z,7.69
2019-03-25T00:39:58.862Z,7.7
2019-03-25T00:40:24.968Z,7.82
2019-03-25T00:40:51.071Z,7.77
2019-03-25T00:41:17.175Z,7.93
2019-03-25T00:41:43.283Z,7.9
2019-03-25T00:42:09.388Z,8
2019-03-25T00:42:35.521Z,7.97
2019-03-25T00:43:01.632Z,8
2019-03-25T00:43:27.741Z,7.97
2019-03-25T00:43:53.841Z,7.95
2019-03-25T00:44:19.952Z,7.91
2019-03-25T00:44:46.057Z,7.72
2019-03-25T00:45:12.170Z,7.73
2019-03-25T00:45:38.307Z,7.82
2019-03-25T00:46:04.413Z,7.73
2019-03-25T00:46:30.522Z,7.88
2019-03-25T00:46:56.635Z,7.85
2019-03-25T00:47:22.741Z,7.82
2019-03-25T00:47:48.853Z,7.87
2019-03-25T00:48:14.993Z,7.93
2019-03-25T00:48:41.101Z,7.98
2019-03-25T00:49:07.209Z,7.7
2019-03-25T00:49:33.339Z,7.67
2019-03-25T00:49:59.448Z,7.79
2019-03-25T00:50:25.556Z,7.79
2019-03-25T00:50:51.692Z,7.85
2019-03-25T00:51:17.827Z,7.75
2019-03-25T00:51:43.933Z,7.79
2019-03-25T00:52:10.045Z,7.87
2019-03-25T00:52:36.183Z,7.8
2019-03-25T00:53:02.322Z,7.82
2019-03-25T00:53:28.429Z,7.79
2019-03-25T00:53:54.541Z,7.76
2019-03-25T00:54:20.669Z,7.7
2019-03-25T00:54:50.105Z,7.72
2019-03-25T00:55:14.874Z,7.76
2019-03-25T00:55:41.001Z,7.75
2019-03-25T00:56:07.117Z,7.76
2019-03-25T00:56:33.252Z,7.79
2019-03-25T00:56:59.353Z,7.82
2019-03-25T00:57:25.463Z,7.83
2019-03-25T00:57:51.571Z,7.8
2019-03-25T00:58:17.675Z,7.82
2019-03-25T00:58:43.816Z,7.79
2019-03-25T00:59:09.923Z,7.85
2019-03-25T00:59:36.033Z,7.75
2019-03-25T01:00:03.134Z,7.7
2019-03-25T01:00:29.254Z,7.75
2019-03-25T01:00:55.389Z,7.79
2019-03-25T01:01:21.497Z,7.8
2019-03-25T01:01:47.610Z,7.8
2019-03-25T01:02:13.713Z,7.91
2019-03-25T01:02:39.853Z,7.98
2019-03-25T01:03:05.986Z,7.95
2019-03-25T01:03:32.094Z,8.01
2019-03-25T01:03:58.202Z,8.05
2019-03-25T01:04:24.309Z,7.97
2019-03-25T01:04:50.414Z,7.95
2019-03-25T01:05:16.529Z,7.93
2019-03-25T01:05:42.626Z,7.93
2019-03-25T01:06:08.739Z,7.82
2019-03-25T01:06:34.845Z,7.87
2019-03-25T01:07:00.962Z,7.83
2019-03-25T01:07:27.063Z,7.97
2019-03-25T01:07:53.168Z,8.03
2019-03-25T01:08:19.298Z,8.01
2019-03-25T01:08:45.409Z,7.97
2019-03-25T01:09:11.549Z,7.83
2019-03-25T01:09:37.678Z,7.83
2019-03-25T01:10:03.820Z,7.79
2019-03-25T01:10:29.925Z,7.91
2019-03-25T01:10:56.030Z,7.94
2019-03-25T01:11:22.140Z,7.95
2019-03-25T01:11:49.567Z,7.8
2019-03-25T01:12:15.648Z,7.94
2019-03-25T01:12:41.782Z,7.76
2019-03-25T01:13:07.887Z,7.77
2019-03-25T01:13:34.031Z,7.9
2019-03-25T01:14:00.140Z,7.91
2019-03-25T01:14:26.248Z,7.83
2019-03-25T01:14:52.358Z,7.87
2019-03-25T01:15:18.469Z,7.94
2019-03-25T01:15:44.575Z,7.76
2019-03-25T01:16:10.687Z,7.72
2019-03-25T01:16:36.788Z,7.72
2019-03-25T01:17:02.903Z,7.73
2019-03-25T01:17:29.036Z,7.7
2019-03-25T01:17:55.145Z,7.77
2019-03-25T01:18:23.223Z,7.85
2019-03-25T01:18:49.338Z,7.94
2019-03-25T01:19:15.439Z,8.03
2019-03-25T01:19:41.552Z,7.93
2019-03-25T01:20:07.719Z,7.94
2019-03-25T01:20:34.018Z,7.95
2019-03-25T01:21:00.129Z,8.05
2019-03-25T01:21:26.231Z,7.94
2019-03-25T01:21:52.342Z,8
2019-03-25T01:22:18.477Z,8
2019-03-25T01:22:44.564Z,7.97
2019-03-25T01:23:10.670Z,7.93
2019-03-25T01:23:36.782Z,7.97
2019-03-25T01:24:02.897Z,7.95
2019-03-25T01:24:29.002Z,7.95
2019-03-25T01:25:01.631Z,8
2019-03-25T01:25:23.254Z,7.95
2019-03-25T01:25:49.388Z,7.95
2019-03-25T01:26:15.490Z,8
2019-03-25T01:26:41.597Z,8.01
2019-03-25T01:27:07.709Z,7.95
2019-03-25T01:27:33.808Z,8.08
2019-03-25T01:27:59.948Z,7.94
2019-03-25T01:28:26.051Z,7.98
2019-03-25T01:28:52.185Z,7.91
2019-03-25T01:29:18.290Z,7.9
2019-03-25T01:29:44.404Z,7.77
2019-03-25T01:30:10.640Z,7.91
2019-03-25T01:30:36.770Z,8.01
2019-03-25T01:31:02.874Z,7.83
2019-03-25T01:31:28.983Z,7.94
2019-03-25T01:31:55.089Z,7.94
2019-03-25T01:32:21.198Z,7.98
2019-03-25T01:32:47.306Z,8.03
2019-03-25T01:33:13.451Z,7.85
2019-03-25T01:33:39.563Z,7.83
2019-03-25T01:34:05.695Z,7.83
2019-03-25T01:34:31.800Z,7.85
2019-03-25T01:34:57.934Z,7.72
2019-03-25T01:35:24.064Z,7.67
2019-03-25T01:35:50.199Z,7.77
2019-03-25T01:36:16.312Z,7.69
2019-03-25T01:36:42.408Z,7.57
2019-03-25T01:37:08.518Z,7.63
2019-03-25T01:37:34.623Z,7.72
2019-03-25T01:38:00.758Z,7.72
2019-03-25T01:38:26.861Z,7.69
2019-03-25T01:38:52.967Z,7.72
2019-03-25T01:39:19.123Z,7.67
2019-03-25T01:39:45.235Z,7.72
2019-03-25T01:40:11.363Z,7.8
2019-03-25T01:40:37.471Z,7.7
2019-03-25T01:41:03.605Z,7.75
2019-03-25T01:41:29.747Z,7.67
2019-03-25T01:41:55.855Z,7.77
2019-03-25T01:42:22.049Z,7.8
2019-03-25T01:42:48.207Z,7.76
2019-03-25T01:43:14.322Z,7.79
2019-03-25T01:43:40.426Z,7.79
2019-03-25T01:44:06.529Z,7.85
2019-03-25T01:44:32.665Z,7.72
2019-03-25T01:44:58.771Z,7.7
2019-03-25T01:45:24.885Z,7.66
2019-03-25T01:45:50.990Z,7.72
2019-03-25T01:46:17.109Z,7.67
2019-03-25T01:46:43.210Z,7.72
2019-03-25T01:47:09.324Z,7.66
2019-03-25T01:47:35.461Z,7.72
2019-03-25T01:48:01.574Z,7.7
2019-03-25T01:48:27.677Z,7.8
2019-03-25T01:48:53.794Z,7.72
2019-03-25T01:49:19.902Z,7.75
2019-03-25T01:49:46.076Z,7.63
2019-03-25T01:50:12.197Z,7.67
2019-03-25T01:50:38.296Z,7.69
2019-03-25T01:51:04.408Z,7.66
2019-03-25T01:51:30.512Z,7.69
2019-03-25T01:51:56.650Z,7.76
2019-03-25T01:52:22.760Z,7.7
2019-03-25T01:52:48.888Z,7.66
2019-03-25T01:53:15.030Z,7.7
2019-03-25T01:53:41.159Z,7.67
2019-03-25T01:54:07.269Z,7.51
2019-03-25T01:54:33.376Z,7.57
2019-03-25T01:54:59.483Z,7.53
2019-03-25T01:55:27.602Z,7.5
2019-03-25T01:55:53.709Z,7.61
2019-03-25T01:56:19.813Z,7.63
2019-03-25T01:56:45.924Z,7.66
2019-03-25T01:57:12.058Z,7.7
2019-03-25T01:57:38.165Z,7.7
2019-03-25T01:58:04.268Z,7.72
2019-03-25T01:58:30.411Z,7.69
2019-03-25T01:58:56.515Z,7.8
2019-03-25T01:59:22.620Z,7.79
2019-03-25T01:59:48.722Z,7.82
2019-03-25T02:00:14.828Z,7.79
2019-03-25T02:00:40.932Z,7.76
2019-03-25T02:01:07.038Z,7.8
2019-03-25T02:01:33.150Z,7.73
2019-03-25T02:01:59.255Z,7.69
2019-03-25T02:02:25.355Z,7.67
2019-03-25T02:02:51.464Z,7.73
2019-03-25T02:03:17.572Z,7.69
2019-03-25T02:03:43.710Z,7.67
2019-03-25T02:04:09.824Z,7.6
2019-03-25T02:04:35.924Z,7.57
2019-03-25T02:05:02.027Z,7.66
2019-03-25T02:05:28.162Z,7.72
2019-03-25T02:05:54.297Z,7.7
2019-03-25T02:06:20.414Z,7.67
2019-03-25T02:06:46.516Z,7.57
2019-03-25T02:07:12.628Z,7.66
2019-03-25T02:07:38.768Z,7.66
2019-03-25T02:08:04.879Z,7.6
2019-03-25T02:08:30.984Z,7.61
2019-03-25T02:08:57.091Z,7.61
2019-03-25T02:09:23.247Z,7.56
2019-03-25T02:09:49.362Z,7.63
2019-03-25T02:10:15.468Z,7.67
2019-03-25T02:10:41.572Z,7.67
2019-03-25T02:11:07.680Z,7.66
2019-03-25T02:11:33.787Z,7.73
2019-03-25T02:11:59.897Z,7.67
2019-03-25T02:12:26.009Z,7.69
2019-03-25T02:12:52.119Z,7.66
2019-03-25T02:13:18.252Z,7.61
2019-03-25T02:13:44.359Z,7.7
2019-03-25T02:14:10.466Z,7.53
2019-03-25T02:14:36.604Z,7.58
2019-03-25T02:15:02.744Z,7.63
2019-03-25T02:15:28.854Z,7.61
2019-03-25T02:15:54.947Z,7.61
2019-03-25T02:16:21.060Z,7.63
2019-03-25T02:16:47.163Z,7.72
2019-03-25T02:17:13.264Z,7.63
2019-03-25T02:17:39.419Z,7.67
2019-03-25T02:18:05.478Z,7.61
2019-03-25T02:18:31.616Z,7.67
2019-03-25T02:18:57.725Z,7.66
2019-03-25T02:19:23.866Z,7.73
2019-03-25T02:19:49.967Z,7.67
2019-03-25T02:20:25.711Z,7.69
2019-03-25T02:20:44.220Z,7.69
2019-03-25T02:21:10.356Z,7.72
2019-03-25T02:21:36.496Z,7.73
2019-03-25T02:22:02.663Z,7.67
2019-03-25T02:22:28.855Z,7.56
2019-03-25T02:22:55.367Z,7.66
2019-03-25T02:23:21.762Z,7.57
2019-03-25T02:23:47.869Z,7.56
2019-03-25T02:24:13.972Z,7.66
2019-03-25T02:24:40.135Z,7.66
2019-03-25T02:25:06.266Z,7.58
2019-03-25T02:25:34.357Z,7.47
2019-03-25T02:26:00.495Z,7.51
2019-03-25T02:26:26.601Z,7.43
2019-03-25T02:26:52.710Z,7.5
2019-03-25T02:27:18.812Z,7.43
2019-03-25T02:27:44.949Z,7.45
2019-03-25T02:28:11.082Z,7.4
2019-03-25T02:28:37.253Z,7.4
2019-03-25T02:29:03.363Z,7.47
2019-03-25T02:29:29.471Z,7.48
2019-03-25T02:29:55.605Z,7.48
2019-03-25T02:30:21.755Z,7.47
2019-03-25T02:30:47.922Z,7.45
2019-03-25T02:31:14.090Z,7.38
2019-03-25T02:31:40.230Z,7.47
2019-03-25T02:32:06.359Z,7.51
2019-03-25T02:32:32.533Z,7.42
2019-03-25T02:32:58.634Z,7.45
2019-03-25T02:33:24.747Z,7.43
2019-03-25T02:33:50.882Z,7.45
2019-03-25T02:34:17.057Z,7.45
2019-03-25T02:34:43.156Z,7.47
2019-03-25T02:35:09.263Z,7.42
2019-03-25T02:35:35.385Z,7.39
2019-03-25T02:36:01.551Z,7.51
2019-03-25T02:36:27.706Z,7.5
2019-03-25T02:36:53.847Z,7.53
2019-03-25T02:37:20.008Z,7.5
2019-03-25T02:37:46.119Z,7.53
2019-03-25T02:38:12.224Z,7.63
2019-03-25T02:38:38.357Z,7.63
2019-03-25T02:39:04.488Z,7.48
2019-03-25T02:39:30.632Z,7.53
2019-03-25T02:39:56.774Z,7.66
2019-03-25T02:40:22.892Z,7.61
2019-03-25T02:40:49.024Z,7.66
2019-03-25T02:41:15.161Z,7.69
2019-03-25T02:41:41.301Z,7.72
2019-03-25T02:42:07.403Z,7.69
2019-03-25T02:42:33.504Z,7.61
2019-03-25T02:42:59.611Z,7.72
2019-03-25T02:43:25.782Z,7.73
2019-03-25T02:43:51.887Z,7.66
2019-03-25T02:44:18.026Z,7.6
2019-03-25T02:44:44.152Z,7.67
2019-03-25T02:45:10.297Z,7.66
2019-03-25T02:45:36.448Z,7.73
2019-03-25T02:46:02.584Z,7.67
2019-03-25T02:46:28.776Z,7.72
2019-03-25T02:46:54.916Z,7.8
2019-03-25T02:47:21.052Z,7.7
2019-03-25T02:47:47.161Z,7.75
2019-03-25T02:48:13.294Z,7.77
2019-03-25T02:48:39.407Z,7.75
2019-03-25T02:49:05.601Z,7.79
2019-03-25T02:49:31.739Z,7.79
2019-03-25T02:49:57.880Z,7.7
2019-03-25T02:50:24.017Z,7.67
2019-03-25T02:50:50.120Z,7.79
2019-03-25T02:51:16.290Z,7.77
2019-03-25T02:51:42.418Z,7.77
2019-03-25T02:52:08.528Z,8
2019-03-25T02:52:34.659Z,8
2019-03-25T02:53:00.793Z,7.97
2019-03-25T02:53:26.962Z,7.95
2019-03-25T02:53:53.097Z,8
2019-03-25T02:54:19.233Z,8
2019-03-25T02:54:45.359Z,7.95
2019-03-25T02:55:11.536Z,7.95
2019-03-25T02:55:41.686Z,7.97
2019-03-25T02:56:05.802Z,8.05
2019-03-25T02:56:31.968Z,8.06
2019-03-25T02:56:58.101Z,8.06
2019-03-25T02:57:24.246Z,8.03
2019-03-25T02:57:50.394Z,8.06
2019-03-25T02:58:16.525Z,8.08
2019-03-25T02:58:42.743Z,8
2019-03-25T02:59:08.911Z,7.97
2019-03-25T02:59:35.047Z,7.97
2019-03-25T03:00:01.182Z,8.06
2019-03-25T03:00:27.345Z,7.98
2019-03-25T03:00:53.507Z,7.98
2019-03-25T03:01:19.646Z,8.09
2019-03-25T03:01:45.780Z,8.12
2019-03-25T03:02:11.944Z,8.12
2019-03-25T03:02:38.123Z,8.13
2019-03-25T03:03:04.242Z,8.18
2019-03-25T03:03:30.357Z,8.19
2019-03-25T03:03:56.509Z,8.18
2019-03-25T03:04:22.646Z,8.16
2019-03-25T03:04:48.807Z,8.3
2019-03-25T03:05:15.001Z,8.15
2019-03-25T03:05:41.142Z,8.3
2019-03-25T03:06:07.274Z,8.18
2019-03-25T03:06:33.412Z,8.3
2019-03-25T03:06:59.518Z,8.2
2019-03-25T03:07:25.674Z,8.16
2019-03-25T03:07:51.760Z,8.13
2019-03-25T03:08:17.914Z,8.16
2019-03-25T03:08:47.300Z,8.15
2019-03-25T03:09:11.141Z,8.16
2019-03-25T03:09:37.308Z,8.09
2019-03-25T03:10:03.416Z,8.12
2019-03-25T03:10:29.554Z,8.1
2019-03-25T03:10:55.791Z,8.05
2019-03-25T03:11:21.948Z,8
2019-03-25T03:11:48.145Z,7.94
2019-03-25T03:12:14.327Z,8
2019-03-25T03:12:40.433Z,7.91
2019-03-25T03:13:06.551Z,7.95
2019-03-25T03:13:32.677Z,7.97
2019-03-25T03:13:58.811Z,7.83
2019-03-25T03:14:25.954Z,7.82
2019-03-25T03:14:52.091Z,7.8
2019-03-25T03:15:18.283Z,7.9
2019-03-25T03:15:44.391Z,7.83
2019-03-25T03:16:10.557Z,7.76
2019-03-25T03:16:36.658Z,7.77
2019-03-25T03:17:02.808Z,7.79
2019-03-25T03:17:28.927Z,7.77
2019-03-25T03:17:55.071Z,7.97
2019-03-25T03:18:21.176Z,7.9
2019-03-25T03:18:47.312Z,7.9
2019-03-25T03:19:13.445Z,7.8
2019-03-25T03:19:39.577Z,7.82
2019-03-25T03:20:05.947Z,7.82
2019-03-25T03:20:32.111Z,7.79
2019-03-25T03:20:58.236Z,7.88
2019-03-25T03:21:24.374Z,7.87
2019-03-25T03:21:50.495Z,7.67
2019-03-25T03:22:16.589Z,7.69
2019-03-25T03:22:42.698Z,7.69
2019-03-25T03:23:08.856Z,7.72
2019-03-25T03:23:34.969Z,7.77
2019-03-25T03:24:01.164Z,7.67
2019-03-25T03:24:27.296Z,7.7
2019-03-25T03:24:53.404Z,7.69
2019-03-25T03:25:19.505Z,7.73
2019-03-25T03:25:56.748Z,7.67
2019-03-25T03:26:14.741Z,7.7
2019-03-25T03:26:40.841Z,7.61
2019-03-25T03:27:06.978Z,7.58
2019-03-25T03:27:34.080Z,7.67
2019-03-25T03:28:00.186Z,7.7
2019-03-25T03:28:26.345Z,7.6
2019-03-25T03:28:52.447Z,7.57
2019-03-25T03:29:18.594Z,7.66
2019-03-25T03:29:44.728Z,7.63
2019-03-25T03:30:11.387Z,7.45
2019-03-25T03:30:37.493Z,7.51
2019-03-25T03:31:03.716Z,7.45
2019-03-25T03:31:29.855Z,7.54
2019-03-25T03:31:56.043Z,7.54
2019-03-25T03:32:22.398Z,7.51
2019-03-25T03:32:48.570Z,7.56
2019-03-25T03:33:14.708Z,7.66
2019-03-25T03:33:40.852Z,7.54
2019-03-25T03:34:07.090Z,7.66
2019-03-25T03:34:33.211Z,7.58
2019-03-25T03:34:59.530Z,7.61
2019-03-25T03:35:25.708Z,7.73
2019-03-25T03:35:52.018Z,7.7
2019-03-25T03:36:18.156Z,7.73
2019-03-25T03:36:44.286Z,7.72
2019-03-25T03:37:10.423Z,7.67
2019-03-25T03:37:36.559Z,7.85
2019-03-25T03:38:02.668Z,7.87
2019-03-25T03:38:28.921Z,7.87
2019-03-25T03:38:54.963Z,7.83
2019-03-25T03:39:21.104Z,7.88
2019-03-25T03:39:47.300Z,7.94
2019-03-25T03:40:13.463Z,7.82
2019-03-25T03:40:39.657Z,7.88
2019-03-25T03:41:05.805Z,7.9
2019-03-25T03:41:31.942Z,7.83
2019-03-25T03:41:58.102Z,7.76
2019-03-25T03:42:24.258Z,7.85
2019-03-25T03:42:50.387Z,7.79
2019-03-25T03:43:16.542Z,7.85
2019-03-25T03:43:42.680Z,7.82
2019-03-25T03:44:09.834Z,7.82
2019-03-25T03:44:35.955Z,7.83
2019-03-25T03:45:02.113Z,7.77
2019-03-25T03:45:28.292Z,7.83
2019-03-25T03:45:54.454Z,7.85
2019-03-25T03:46:20.592Z,7.85
2019-03-25T03:46:46.699Z,7.8
2019-03-25T03:47:12.891Z,7.87
2019-03-25T03:47:39.065Z,7.82
2019-03-25T03:48:05.189Z,7.82
2019-03-25T03:48:31.327Z,7.82
2019-03-25T03:48:57.463Z,7.72
2019-03-25T03:49:23.634Z,7.69
2019-03-25T03:49:49.837Z,7.83
2019-03-25T03:50:17.074Z,7.79
2019-03-25T03:50:43.217Z,7.83
2019-03-25T03:51:09.333Z,7.69
2019-03-25T03:51:35.506Z,7.76
2019-03-25T03:52:01.611Z,7.67
2019-03-25T03:52:27.773Z,7.72
2019-03-25T03:52:53.875Z,7.83
2019-03-25T03:53:20.088Z,7.73
2019-03-25T03:53:46.230Z,7.76
2019-03-25T03:54:12.389Z,7.85
2019-03-25T03:54:38.554Z,7.9
2019-03-25T03:55:04.649Z,7.73
2019-03-25T03:55:30.846Z,7.8
2019-03-25T03:56:11.415Z,7.8
2019-03-25T03:56:26.087Z,7.79
2019-03-25T03:56:52.191Z,7.75
2019-03-25T03:57:18.425Z,7.87
2019-03-25T03:57:44.524Z,7.82
2019-03-25T03:58:10.666Z,7.83
2019-03-25T03:58:36.803Z,7.87
2019-03-25T03:59:02.909Z,7.79
2019-03-25T03:59:29.034Z,7.73
2019-03-25T03:59:55.140Z,7.73
2019-03-25T04:00:21.252Z,7.67
2019-03-25T04:00:47.392Z,7.72
2019-03-25T04:01:13.529Z,7.66
2019-03-25T04:01:39.674Z,7.7
2019-03-25T04:02:05.892Z,7.72
2019-03-25T04:02:32.021Z,7.7
2019-03-25T04:02:58.215Z,7.67
2019-03-25T04:03:24.355Z,7.53
2019-03-25T04:03:50.570Z,7.54
2019-03-25T04:04:16.696Z,7.5
2019-03-25T04:04:42.806Z,7.5
2019-03-25T04:05:08.906Z,7.53
2019-03-25T04:05:35.097Z,7.6
2019-03-25T04:06:01.256Z,7.53
2019-03-25T04:06:27.425Z,7.51
2019-03-25T04:06:53.564Z,7.43
2019-03-25T04:07:19.731Z,7.38
2019-03-25T04:07:45.924Z,7.42
2019-03-25T04:08:12.057Z,7.47
2019-03-25T04:08:38.187Z,7.48
2019-03-25T04:09:04.318Z,7.43
2019-03-25T04:09:30.479Z,7.42
2019-03-25T04:09:56.583Z,7.51
2019-03-25T04:10:22.721Z,7.4
2019-03-25T04:10:48.884Z,7.43
2019-03-25T04:11:15.019Z,7.5
2019-03-25T04:11:41.153Z,7.45
2019-03-25T04:12:07.299Z,7.42
2019-03-25T04:12:33.439Z,7.45
2019-03-25T04:12:59.627Z,7.45
2019-03-25T04:13:25.768Z,7.43
2019-03-25T04:13:51.876Z,7.47
2019-03-25T04:14:17.985Z,7.42
2019-03-25T04:14:44.118Z,7.36
2019-03-25T04:15:10.283Z,7.32
2019-03-25T04:15:36.474Z,7.21
2019-03-25T04:16:03.569Z,7.28
2019-03-25T04:16:29.703Z,7.32
2019-03-25T04:16:55.810Z,7.24
2019-03-25T04:17:21.915Z,7.31
2019-03-25T04:17:48.081Z,7.33
2019-03-25T04:18:14.216Z,7.32
2019-03-25T04:18:40.351Z,7.31
2019-03-25T04:19:06.512Z,7.32
2019-03-25T04:19:32.600Z,7.17
2019-03-25T04:19:58.746Z,7.23
2019-03-25T04:20:24.849Z,7.11
2019-03-25T04:20:50.988Z,7.13
2019-03-25T04:21:17.115Z,7.03
2019-03-25T04:21:43.284Z,7.2
2019-03-25T04:22:09.417Z,7.11
2019-03-25T04:22:35.612Z,7.1
2019-03-25T04:23:01.755Z,7.05
2019-03-25T04:23:27.893Z,7.15
2019-03-25T04:23:55.046Z,7.13
2019-03-25T04:24:21.204Z,7.14
2019-03-25T04:24:47.341Z,7.14
2019-03-25T04:25:13.458Z,7.2
2019-03-25T04:25:39.554Z,7.15
2019-03-25T04:26:05.717Z,7.14
2019-03-25T04:26:34.791Z,7.14
2019-03-25T04:27:00.903Z,7.1
2019-03-25T04:27:27.075Z,7.07
2019-03-25T04:27:53.183Z,7.1
2019-03-25T04:28:19.313Z,7.13
2019-03-25T04:28:45.448Z,7.14
2019-03-25T04:29:11.614Z,7.14
2019-03-25T04:29:37.818Z,7.17
2019-03-25T04:30:03.992Z,7.14
2019-03-25T04:30:30.153Z,7.07
2019-03-25T04:30:56.380Z,7.07
2019-03-25T04:31:22.543Z,7.11
2019-03-25T04:31:48.649Z,7.11
2019-03-25T04:32:14.778Z,7.14
2019-03-25T04:32:40.887Z,7.06
2019-03-25T04:33:07.004Z,7.17
2019-03-25T04:33:33.135Z,7.11
2019-03-25T04:33:59.242Z,7.06
2019-03-25T04:34:25.394Z,7.11
2019-03-25T04:34:51.514Z,7.06
2019-03-25T04:35:17.673Z,7.14
2019-03-25T04:35:43.785Z,7.18
2019-03-25T04:36:09.893Z,7.02
2019-03-25T04:36:36.081Z,7.02
2019-03-25T04:37:02.222Z,6.99
2019-03-25T04:37:28.355Z,7.02
2019-03-25T04:37:56.412Z,6.99
2019-03-25T04:38:20.625Z,6.99
2019-03-25T04:38:46.722Z,7.05
2019-03-25T04:39:12.889Z,6.96
2019-03-25T04:39:39.026Z,6.96
2019-03-25T04:40:05.131Z,6.99
2019-03-25T04:40:31.248Z,6.97
2019-03-25T04:40:57.403Z,6.88
2019-03-25T04:41:23.552Z,6.97
2019-03-25T04:41:49.719Z,6.95
2019-03-25T04:42:15.851Z,6.95
2019-03-25T04:42:42.014Z,6.93
2019-03-25T04:43:08.174Z,6.87
2019-03-25T04:43:34.285Z,6.87
2019-03-25T04:44:00.424Z,6.77
2019-03-25T04:44:26.524Z,6.82
2019-03-25T04:44:52.632Z,6.72
2019-03-25T04:45:18.738Z,6.77
2019-03-25T04:45:44.846Z,6.75
2019-03-25T04:46:10.950Z,6.84
2019-03-25T04:46:37.058Z,6.77
2019-03-25T04:47:03.161Z,6.77
2019-03-25T04:47:29.298Z,6.69
2019-03-25T04:47:55.403Z,6.56
2019-03-25T04:48:21.508Z,6.69
2019-03-25T04:48:47.616Z,6.75
2019-03-25T04:49:13.752Z,6.66
2019-03-25T04:49:39.894Z,6.7
2019-03-25T04:50:06.001Z,6.67
2019-03-25T04:50:32.105Z,6.7
2019-03-25T04:50:58.217Z,6.7
2019-03-25T04:51:24.321Z,6.75
2019-03-25T04:51:50.435Z,6.67
2019-03-25T04:52:16.532Z,6.59
2019-03-25T04:52:42.679Z,6.63
2019-03-25T04:53:08.814Z,6.72
2019-03-25T04:53:34.943Z,6.74
2019-03-25T04:54:01.087Z,6.6
2019-03-25T04:54:27.188Z,6.59
2019-03-25T04:54:53.297Z,6.6
2019-03-25T04:55:19.406Z,6.56
2019-03-25T04:55:45.570Z,6.72
2019-03-25T04:56:11.678Z,6.72
2019-03-25T04:56:40.068Z,6.6
2019-03-25T04:57:04.942Z,6.6
2019-03-25T04:57:31.047Z,6.67
2019-03-25T04:57:57.152Z,6.56
2019-03-25T04:58:23.254Z,6.7
2019-03-25T04:58:49.367Z,6.66
2019-03-25T04:59:15.992Z,6.63
2019-03-25T04:59:42.099Z,6.67
2019-03-25T05:00:08.210Z,6.7
2019-03-25T05:00:34.316Z,6.64
2019-03-25T05:01:00.425Z,6.66
2019-03-25T05:01:26.528Z,6.77
2019-03-25T05:01:52.631Z,6.69
2019-03-25T05:02:18.731Z,6.6
2019-03-25T05:02:44.848Z,6.64
2019-03-25T05:03:10.984Z,6.6
2019-03-25T05:03:37.126Z,6.59
2019-03-25T05:04:03.310Z,6.6
2019-03-25T05:04:29.423Z,6.66
2019-03-25T05:04:55.534Z,6.59
2019-03-25T05:05:21.638Z,6.59
2019-03-25T05:05:47.792Z,6.63
2019-03-25T05:06:13.845Z,6.72
2019-03-25T05:06:39.982Z,6.62
2019-03-25T05:07:06.088Z,6.6
2019-03-25T05:07:32.189Z,6.59
2019-03-25T05:07:58.333Z,6.63
2019-03-25T05:08:24.445Z,6.63
2019-03-25T05:08:50.546Z,6.57
2019-03-25T05:09:16.653Z,6.49
2019-03-25T05:09:42.767Z,6.51
2019-03-25T05:10:08.875Z,6.31
2019-03-25T05:10:34.980Z,6.35
2019-03-25T05:11:02.676Z,6.41
2019-03-25T05:11:30.672Z,6.48
2019-03-25T05:11:56.294Z,6.44
2019-03-25T05:12:22.431Z,6.57
2019-03-25T05:12:48.542Z,6.49
2019-03-25T05:13:14.647Z,6.49
2019-03-25T05:13:40.756Z,6.44
2019-03-25T05:14:06.861Z,6.52
2019-03-25T05:14:32.962Z,6.46
2019-03-25T05:14:59.072Z,6.48
2019-03-25T05:15:25.189Z,6.52
2019-03-25T05:15:51.292Z,6.54
2019-03-25T05:16:18.604Z,6.51
2019-03-25T05:16:44.500Z,6.49
2019-03-25T05:17:10.613Z,6.52
2019-03-25T05:17:36.716Z,6.46
2019-03-25T05:18:02.857Z,6.51
2019-03-25T05:18:28.996Z,6.52
2019-03-25T05:18:55.103Z,6.56
2019-03-25T05:19:21.208Z,6.45
2019-03-25T05:19:47.312Z,6.45
2019-03-25T05:20:13.421Z,6.51
2019-03-25T05:20:39.528Z,6.49
2019-03-25T05:21:05.672Z,6.51
2019-03-25T05:21:31.775Z,6.54
2019-03-25T05:21:57.891Z,6.6
2019-03-25T05:22:24.985Z,6.56
2019-03-25T05:22:51.090Z,6.59
2019-03-25T05:23:17.218Z,6.56
2019-03-25T05:23:43.330Z,6.51
2019-03-25T05:24:09.468Z,6.49
2019-03-25T05:24:35.601Z,6.49
2019-03-25T05:25:01.741Z,6.44
2019-03-25T05:25:27.847Z,6.45
2019-03-25T05:25:53.955Z,6.46
2019-03-25T05:26:20.113Z,6.41
2019-03-25T05:26:51.134Z,6.46
2019-03-25T05:27:14.354Z,6.51
2019-03-25T05:27:40.469Z,6.51
2019-03-25T05:28:06.568Z,6.49
2019-03-25T05:28:32.669Z,6.48
2019-03-25T05:28:58.777Z,6.51
2019-03-25T05:29:24.883Z,6.49
2019-03-25T05:29:51.018Z,6.44
2019-03-25T05:30:17.132Z,6.38
2019-03-25T05:30:43.258Z,6.3
2019-03-25T05:31:09.371Z,6.41
2019-03-25T05:31:35.474Z,6.35
2019-03-25T05:32:01.591Z,6.36
2019-03-25T05:32:27.714Z,6.39
2019-03-25T05:32:53.823Z,6.38
2019-03-25T05:33:19.931Z,6.3
2019-03-25T05:33:46.037Z,6.36
2019-03-25T05:34:12.140Z,6.36
2019-03-25T05:34:38.244Z,6.44
2019-03-25T05:35:04.361Z,6.46
2019-03-25T05:35:30.458Z,6.56
2019-03-25T05:35:57.393Z,6.51
2019-03-25T05:36:23.501Z,6.57
2019-03-25T05:36:49.601Z,6.59
2019-03-25T05:37:15.714Z,6.51
2019-03-25T05:37:41.851Z,6.52
2019-03-25T05:38:07.981Z,6.52
2019-03-25T05:38:34.091Z,6.44
2019-03-25T05:39:00.192Z,6.46
2019-03-25T05:39:26.329Z,6.51
2019-03-25T05:39:52.433Z,6.57
2019-03-25T05:40:18.582Z,6.59
2019-03-25T05:40:44.688Z,6.6
2019-03-25T05:41:10.797Z,6.38
2019-03-25T05:41:36.974Z,6.46
2019-03-25T05:42:03.073Z,6.59
2019-03-25T05:42:29.212Z,6.63
2019-03-25T05:42:55.315Z,6.67
2019-03-25T05:43:21.459Z,6.67
2019-03-25T05:43:47.561Z,6.63
2019-03-25T05:44:13.671Z,6.6
2019-03-25T05:44:39.777Z,6.74
2019-03-25T05:45:05.893Z,6.84
2019-03-25T05:45:31.996Z,6.81
2019-03-25T05:45:58.101Z,6.78
2019-03-25T05:46:24.219Z,6.78
2019-03-25T05:46:50.320Z,6.74
2019-03-25T05:47:16.430Z,6.79
2019-03-25T05:47:42.541Z,6.78
2019-03-25T05:48:08.644Z,6.87
2019-03-25T05:48:34.785Z,6.84
2019-03-25T05:49:00.887Z,6.81
2019-03-25T05:49:26.994Z,6.81
2019-03-25T05:49:53.104Z,6.79
2019-03-25T05:50:19.734Z,6.78
2019-03-25T05:50:45.840Z,6.78